Aviation Digital Data Service (ADDS)

Output produced by METARs form (2130 UTC 21 May 2022)
found at http://www.aviationweather.gov/metar/data/
 
RKSG 212056Z 01002KT 2 1/2SM BR BKN015 BKN030 17/13 A2977 RMK AO2A WND DATA ESTMD ALSTG ESTMD $
TAF AMD RKSG 212002Z 2120/2301 VRB06KT 4800 BR BKN020 510036 QNH2977INS 
     BECMG 2120/2121 VRB03KT 4000 BR BKN030 WS020/27026KT 510036 QNH2977INS 
     BECMG 2123/2124 23012KT 9999 NSW SKC 510016 QNH2977INS 
     BECMG 2201/2202 25010G15KT 9999 SKC 520016 QNH2970INS 
     BECMG 2212/2213 VRB06KT 9999 SKC 510016 QNH2978INS 
     BECMG 2220/2221 VRB03KT 3200 BR BKN002 510036 QNH2987INS TX25/2205Z
TN13/2219Z
       
RKTU 212100Z 24006KT 6000 SCT010 14/14 Q1009
TAF RKTU 211700Z 2118/2224 27006KT 4800 BR SCT030 SCT150 TX30/2206Z TN13/2221Z 
     BECMG 2201/2202 9999 NSW
       
RKTN 212100Z 35003KT CAVOK 18/10 Q1008
TAF RKTN 211700Z 2118/2224 30006KT 9999 SCT030 SCT200 TN16/2121Z TX32/2206Z
       
RKPK 212100Z 31002KT CAVOK 17/12 Q1007
TAF RKPK 211700Z 2118/2224 33006KT 9999 SCT030 SCT200 TN16/2121Z TX32/2206Z 
     BECMG 2202/2203 21010KT 
     BECMG 2211/2212 33006KT
       
RKSS 212100Z 20005KT 4500 BR BKN009 15/13 Q1008 BECMG 6000 NSW
TAF RKSS 211700Z 2118/2224 25005KT 6000 BKN011 TN14/2121Z TX26/2606Z TX14/2221Z 
     BECMG 2119/2120 4000 BR 
     BECMG 2121/2122 19006KT 6000 NSW FEW010 SCT025 
     BECMG 2201/2203 25008G20KT CAVOK 
     BECMG 2211/2212 19005KT 6000 NSC 
     TEMPO 2216/2221 3500 BR SCT010
       
RKSI 212100Z 20009KT 8000 BKN004 14/13 Q1008 NOSIG
TAF RKSI 211700Z 2118/2224 19007KT 6000 BKN006 TN14/2121Z TX23/2205Z TN14/2220Z 
     BECMG 2119/2120 4000 BR BKN002 
     BECMG 2122/2123 6000 NSW FEW010 
     BECMG 2202/2204 25008KT 
     BECMG 2216/2217 16005KT 2500 BR BKN006 
     BECMG 2222/2223 25007KT 6000 NSW FEW010
       
RKPC 212100Z 21005KT CAVOK 14/13 Q1010 NOSIG
TAF RKPC 211700Z 2118/2224 26007KT 6000 NSC TN13/2118Z TX24/2205Z TN17/2219Z 
     TEMPO 2118/2121 3500 BR SCT002 
     BECMG 2220/2221 20005KT 
     BECMG 2223/2224 30005KT CAVOK
       
RKJK 212056Z 23005KT 10SM BKN010 16/14 A2979 RMK AO2A SLP092 T01560140 53002 $
TAF AMD RKJK 212100Z 2121/2222 21006KT 9999 BKN010 QNH2979INS 
     BECMG 2123/2124 23009KT 9999 SKC QNH2979INS 
     BECMG 2202/2203 24012G18KT 9000 HZ SKC QNH2979INS 
     BECMG 2213/2214 22009KT 9999 NSW SCT010 QNH2982INS 
     TEMPO 2220/2222 3200 BR BKN010 TX24/2205Z TN16/2121Z
       
RKSO 212108Z AUTO 20005KT 8SM SCT009 OVC013 15/15 A2978 RMK AO2 SLP087
TAF RKSO 211300Z 2113/2219 VRB06KT 4800 BR BKN006 QNH2978INS 
     BECMG 2116/2117 VRB06KT 3200 BR OVC005 WS020/28025KT QNH2978INS 
     TEMPO 2117/2121 1600 BR BKN002 
     BECMG 2122/2123 VRB06KT 4800 BR SCT015 QNH2978INS 
     BECMG 2200/2201 VRB06KT 8000 BR FEW150 QNH2973INS 
     BECMG 2204/2205 26010G15KT 9999 NSW SKC QNH2972INS 
     BECMG 2212/2213 VRB06KT 9999 SKC QNH2980INS 
     BECMG 2217/2218 VRB06KT 8000 BR SCT002 QNH2985INS TX27/2206Z TN13/2121Z
LAST NO AMDS AFT 2113 NEXT 2221
       
RKSM 212100Z 24004KT 8000 BR BKN015 16/13 A2978
TAF RKSM 211700Z 2118/2224 24006KT 8000 BR BKN015 
     BECMG 2123/2124 24006KT 9999 NSW SCT030 TN14/2121Z TX28/2206Z
       
RKNY 212100Z AUTO 27017KT 240V300 9999 NCD 21/10 Q1004
TAF RKNY 211700Z 2118/2224 25010KT CAVOK TN18/2120Z TX25/2205Z TN17/2221Z 
     BECMG 2203/2204 08010KT 
     BECMG 2209/2210 14006KT 
     BECMG 2222/2223 05005KT